메인 페이지
METAR-TAF:

METAR-TAF

공항 :

튀니스 카르타고 국제공항

튀니스, 튀니지

위도: 36-50N, 경도: 010-14E, 고도: 3m

현재 날씨관측

예보는 1 시간 1분 전, 14:30시(UTC)에 발표되었습니다.
서북서12kt풍과 북북서풍을 오가는
온도 15°C
습도 44%
기압 1014 hPa
시정 10km 이상
고도 2600ft 상공 구름 보통

METAR: DTTA 111430Z 30012KT 270V330 9999 SCT026 15/03 Q1014

시각: 16:31 (15:31 UTC)

예보

예보는 4 시간 31분 전, 11:00시(UTC)에 발표되었습니다.
예보 대상 시간: 11일 12시부터 12일 12시까지 (UTC)
북북서13kt
시정 10km 이상
고도 2600ft 상공 구름 보통
일시적
11일 13시부터 11일 16시까지 (UTC)
북서25kt, 순간 최대 풍속 35kt
확률 40% :
일시적
12일 06시부터 12일 08시까지 (UTC)
북서25kt, 순간 최대 풍속 35kt
시정: 4000m
고도 2300ft 상공 구름 보통, 타워링 적운.

TAF: DTTA 111100Z 1112/1212 33013KT 9999 SCT026 TEMPO 1113/1116 32025G35KT PROB40 TEMPO 1206/1208 31025G35KT 4000 RA SCT023TCU

4,000개 이상의 공항 관측 자료 및 예보 (METAR 및 TAF 보고).

지도상에서 검색 가능한 기상관측소가 노란 점과 빨간 점으로 표시되어 있습니다.

기상관측소 명을 보려면 표시 위로 마우스를 이동하세요.

날씨 관측과 예보를 보려면 클릭하세요.

지도 변경 : 확대하려면 엑스 표시가 있는 녹색 버튼, 축소하려면 빼기 표시가 있는 녹색 버튼, 다음 페이지의 지도를 보려면 녹색 화살표를 클릭하세요.


METAR-TAF: